createdAt,value
2023-04-10T00:01:00.566Z,0.00
2023-04-10T00:06:00.500Z,0.00
2023-04-10T00:11:00.428Z,0.00
2023-04-10T00:16:00.395Z,0.00
2023-04-10T00:21:00.297Z,0.00
2023-04-10T00:26:00.235Z,0.00
2023-04-10T00:31:00.159Z,0.00
2023-04-10T00:36:00.226Z,0.00
2023-04-10T00:41:00.213Z,0.00
2023-04-10T00:45:59.986Z,0.00
2023-04-10T00:50:59.912Z,0.00
2023-04-10T00:55:59.834Z,0.00
2023-04-10T01:00:59.806Z,0.00
2023-04-10T01:05:59.692Z,0.00
2023-04-10T01:10:59.634Z,0.00
2023-04-10T01:15:59.561Z,0.00
2023-04-10T01:20:59.497Z,0.00
2023-04-10T01:25:59.433Z,0.00
2023-04-10T01:30:59.409Z,0.00
2023-04-10T01:35:59.401Z,0.00
2023-04-10T01:40:59.223Z,0.00
2023-04-10T01:45:59.204Z,0.00
2023-04-10T01:50:59.095Z,0.00
2023-04-10T01:55:59.072Z,0.00
2023-04-10T02:00:58.967Z,0.00
2023-04-10T02:07:48.323Z,0.00
2023-04-10T02:12:48.275Z,0.00
2023-04-10T02:17:48.192Z,0.00
2023-04-10T02:22:48.143Z,0.00
2023-04-10T02:27:48.062Z,0.00
2023-04-10T02:32:48.057Z,0.00
2023-04-10T02:37:47.925Z,0.00
2023-04-10T02:42:47.878Z,0.00
2023-04-10T02:47:47.832Z,0.00
2023-04-10T02:52:47.740Z,0.00
2023-04-10T02:57:47.669Z,0.00
2023-04-10T03:02:47.817Z,0.00
2023-04-10T03:07:47.534Z,0.00
2023-04-10T03:12:47.461Z,0.00
2023-04-10T03:17:47.443Z,0.00
2023-04-10T03:22:47.332Z,0.00
2023-04-10T03:27:47.270Z,0.00
2023-04-10T03:32:47.206Z,0.00
2023-04-10T03:37:47.132Z,0.00
2023-04-10T03:42:47.074Z,0.00
2023-04-10T03:47:47.020Z,0.00
2023-04-10T03:52:46.941Z,0.00
2023-04-10T03:57:46.868Z,0.00
2023-04-10T04:02:47.021Z,0.00
2023-04-10T04:07:46.737Z,0.00
2023-04-10T04:12:46.685Z,0.00
2023-04-10T04:17:46.657Z,5.62
2023-04-10T04:22:46.692Z,11.25
2023-04-10T04:27:46.477Z,16.87
2023-04-10T04:32:46.493Z,28.12
2023-04-10T04:37:46.352Z,45.00
2023-04-10T04:42:46.296Z,61.87
2023-04-10T04:47:46.263Z,78.75
2023-04-10T04:52:46.164Z,106.87
2023-04-10T04:57:46.092Z,292.50
2023-04-10T05:02:46.147Z,416.25
2023-04-10T05:07:45.963Z,506.25
2023-04-10T05:12:45.906Z,444.37
2023-04-10T05:17:46.013Z,517.50
2023-04-10T05:22:45.764Z,585.00
2023-04-10T05:27:45.686Z,618.75
2023-04-10T05:32:45.647Z,635.62
2023-04-10T05:37:45.558Z,646.87
2023-04-10T05:42:45.495Z,675.00
2023-04-10T05:47:45.449Z,736.87
2023-04-10T05:52:45.369Z,821.25
2023-04-10T05:57:45.292Z,776.25
2023-04-10T06:02:45.399Z,866.25
2023-04-10T06:07:45.149Z,984.37
2023-04-10T06:12:45.092Z,984.37
2023-04-10T06:17:45.096Z,1046.25
2023-04-10T06:22:44.961Z,1035.00
2023-04-10T06:27:44.881Z,1102.50
2023-04-10T06:32:44.869Z,1423.12
2023-04-10T06:37:44.751Z,3009.37
2023-04-10T06:42:44.697Z,3690.00
2023-04-10T06:47:44.697Z,3588.75
2023-04-10T06:52:44.561Z,3628.12
2023-04-10T06:57:44.484Z,4033.12
2023-04-10T07:02:44.482Z,3442.50
2023-04-10T07:07:44.356Z,2778.75
2023-04-10T07:12:44.291Z,4218.75
2023-04-10T07:17:44.253Z,3656.25
2023-04-10T07:22:44.185Z,4100.62
2023-04-10T07:27:44.089Z,4179.37
2023-04-10T07:32:44.224Z,4190.62
2023-04-10T07:37:43.952Z,4241.25
2023-04-10T07:42:43.895Z,3813.75
2023-04-10T07:47:43.909Z,4095.00
2023-04-10T07:52:43.760Z,3341.25
2023-04-10T07:57:43.689Z,4854.37
2023-04-10T08:02:43.762Z,3380.62
2023-04-10T08:07:43.556Z,3571.87
2023-04-10T08:12:43.493Z,4494.37
2023-04-10T08:17:43.446Z,4893.75
2023-04-10T08:22:43.360Z,4606.87
2023-04-10T08:27:43.281Z,2565.00
2023-04-10T08:32:43.255Z,4314.37
2023-04-10T08:37:49.546Z,4241.25
2023-04-10T08:42:43.095Z,4792.50
2023-04-10T08:47:43.049Z,4882.50
2023-04-10T08:52:42.964Z,4415.62
2023-04-10T08:57:45.336Z,3825.00
2023-04-10T09:02:43.052Z,4269.37
2023-04-10T09:07:42.761Z,3740.62
2023-04-10T09:12:42.703Z,3633.75
2023-04-10T09:17:42.651Z,3954.37
2023-04-10T09:22:42.578Z,3926.25
2023-04-10T09:27:42.513Z,3853.12
2023-04-10T09:32:42.520Z,3813.75
2023-04-10T09:37:42.465Z,3650.62
2023-04-10T09:42:42.307Z,4106.25
2023-04-10T09:47:42.270Z,4168.12
2023-04-10T09:52:42.174Z,3931.87
2023-04-10T09:57:42.108Z,3825.00
2023-04-10T10:02:42.284Z,3352.50
2023-04-10T10:07:41.971Z,3600.00
2023-04-10T10:12:41.906Z,3768.75
2023-04-10T10:17:41.838Z,3695.62
2023-04-10T10:22:41.777Z,3459.37
2023-04-10T10:27:41.711Z,3526.87
2023-04-10T10:32:41.669Z,3240.00
2023-04-10T10:37:41.578Z,3245.62
2023-04-10T10:42:41.532Z,3504.37
2023-04-10T10:47:41.529Z,3296.25
2023-04-10T10:52:41.394Z,3166.87
2023-04-10T10:57:41.321Z,3386.25
2023-04-10T11:02:41.364Z,3133.12
2023-04-10T11:07:41.176Z,3223.12
2023-04-10T11:12:41.125Z,3155.62
2023-04-10T11:17:41.064Z,3043.12
2023-04-10T11:22:40.986Z,1726.87
2023-04-10T11:27:40.913Z,1333.12
2023-04-10T11:32:40.943Z,1344.37
2023-04-10T11:37:40.805Z,1569.37
2023-04-10T11:42:40.714Z,1530.00
2023-04-10T11:47:40.659Z,1141.87
2023-04-10T11:52:40.583Z,1113.75
2023-04-10T11:57:40.504Z,1046.25
2023-04-10T12:02:40.575Z,1029.37
2023-04-10T12:07:40.370Z,798.75
2023-04-10T12:12:40.314Z,731.25
2023-04-10T12:17:40.242Z,883.12
2023-04-10T12:22:40.185Z,714.37
2023-04-10T12:27:40.110Z,855.00
2023-04-10T12:32:40.115Z,832.50
2023-04-10T12:37:39.978Z,635.62
2023-04-10T12:42:39.919Z,686.25
2023-04-10T12:47:39.905Z,714.37
2023-04-10T12:52:39.787Z,714.37
2023-04-10T12:57:39.716Z,703.12
2023-04-10T13:02:39.950Z,686.25
2023-04-10T13:07:39.600Z,624.37
2023-04-10T13:12:39.522Z,646.87
2023-04-10T13:17:39.467Z,658.12
2023-04-10T13:22:39.409Z,573.75
2023-04-10T13:27:39.312Z,517.50
2023-04-10T13:32:39.302Z,534.37
2023-04-10T13:37:39.180Z,562.50
2023-04-10T13:42:41.283Z,624.37
2023-04-10T13:47:39.083Z,433.12
2023-04-10T13:52:38.990Z,450.00
2023-04-10T13:57:38.915Z,416.25
2023-04-10T14:02:39.054Z,433.12
2023-04-10T14:07:38.784Z,382.50
2023-04-10T14:12:38.736Z,405.00
2023-04-10T14:17:38.663Z,354.37
2023-04-10T14:22:38.627Z,360.00
2023-04-10T14:27:38.517Z,365.62
2023-04-10T14:32:38.531Z,371.25
2023-04-10T14:37:38.383Z,354.37
2023-04-10T14:42:38.320Z,326.25
2023-04-10T14:47:38.321Z,337.50
2023-04-10T14:52:38.198Z,365.62
2023-04-10T14:57:38.121Z,376.87
2023-04-10T15:02:38.287Z,376.87
2023-04-10T15:07:37.998Z,399.37
2023-04-10T15:12:37.936Z,388.12
2023-04-10T15:17:37.860Z,382.50
2023-04-10T15:22:37.808Z,360.00
2023-04-10T15:27:37.725Z,337.50
2023-04-10T15:32:37.700Z,309.37
2023-04-10T15:37:37.585Z,281.25
2023-04-10T15:42:37.528Z,247.50
2023-04-10T15:47:37.510Z,230.62
2023-04-10T15:52:37.394Z,208.12
2023-04-10T15:57:37.325Z,196.87
2023-04-10T16:02:37.429Z,191.25
2023-04-10T16:07:37.188Z,191.25
2023-04-10T16:12:37.130Z,202.50
2023-04-10T16:17:37.102Z,219.37
2023-04-10T16:22:36.994Z,219.37
2023-04-10T16:27:36.954Z,213.75
2023-04-10T16:32:36.858Z,196.87
2023-04-10T16:37:36.794Z,185.62
2023-04-10T16:42:36.730Z,174.37
2023-04-10T16:47:36.714Z,163.12
2023-04-10T16:52:36.586Z,146.25
2023-04-10T16:57:36.528Z,140.62
2023-04-10T17:02:36.472Z,123.75
2023-04-10T17:07:36.392Z,112.50
2023-04-10T17:12:36.387Z,101.25
2023-04-10T17:17:36.287Z,84.37
2023-04-10T17:22:36.183Z,78.75
2023-04-10T17:27:38.396Z,61.87
2023-04-10T17:32:36.098Z,45.00
2023-04-10T17:37:35.985Z,33.75
2023-04-10T17:42:35.916Z,28.12
2023-04-10T17:47:35.877Z,16.87
2023-04-10T17:52:35.767Z,11.25
2023-04-10T17:57:35.708Z,5.62
2023-04-10T18:02:35.730Z,5.62
2023-04-10T18:07:35.572Z,0.00
2023-04-10T18:12:35.497Z,0.00
2023-04-10T18:17:36.834Z,0.00
2023-04-10T18:22:35.357Z,0.00
2023-04-10T18:27:35.296Z,0.00
2023-04-10T18:32:35.252Z,0.00
2023-04-10T18:37:35.166Z,0.00
2023-04-10T18:42:35.094Z,0.00
2023-04-10T18:47:35.091Z,0.00
2023-04-10T18:52:34.979Z,0.00
2023-04-10T18:57:34.916Z,0.00
2023-04-10T19:02:34.975Z,0.00
2023-04-10T19:07:34.773Z,0.00
2023-04-10T19:12:34.696Z,0.00
2023-04-10T19:17:34.684Z,0.00
2023-04-10T19:22:34.564Z,0.00
2023-04-10T19:27:34.504Z,0.00
2023-04-10T19:32:34.468Z,0.00
2023-04-10T19:37:34.381Z,0.00
2023-04-10T19:42:34.300Z,0.00
2023-04-10T19:47:34.259Z,0.00
2023-04-10T19:52:34.159Z,0.00
2023-04-10T19:57:34.097Z,0.00
2023-04-10T20:02:34.149Z,0.00
2023-04-10T20:07:33.963Z,0.00
2023-04-10T20:12:33.898Z,0.00
2023-04-10T20:17:33.882Z,0.00
2023-04-10T20:22:33.751Z,0.00
2023-04-10T20:27:33.690Z,0.00
2023-04-10T20:32:33.648Z,0.00
2023-04-10T20:37:33.566Z,0.00
2023-04-10T20:42:33.482Z,0.00
2023-04-10T20:47:33.461Z,0.00
2023-04-10T20:52:33.344Z,0.00
2023-04-10T20:57:33.285Z,0.00
2023-04-10T21:02:33.316Z,0.00
2023-04-10T21:07:33.162Z,0.00
2023-04-10T21:12:33.081Z,0.00
2023-04-10T21:17:33.098Z,0.00
2023-04-10T21:22:32.955Z,0.00
2023-04-10T21:27:32.893Z,0.00
2023-04-10T21:32:32.855Z,0.00
2023-04-10T21:37:32.759Z,0.00
2023-04-10T21:42:32.679Z,0.00
2023-04-10T21:47:32.621Z,0.00
2023-04-10T21:52:32.551Z,0.00
2023-04-10T21:57:32.493Z,0.00
2023-04-10T22:02:32.649Z,0.00
2023-04-10T22:07:32.357Z,0.00
2023-04-10T22:12:32.281Z,0.00
2023-04-10T22:17:32.243Z,0.00
2023-04-10T22:22:32.155Z,0.00
2023-04-10T22:27:32.092Z,0.00
2023-04-10T22:32:32.213Z,0.00
2023-04-10T22:37:31.966Z,0.00
2023-04-10T22:42:32.184Z,0.00
2023-04-10T22:47:31.828Z,0.00
2023-04-10T22:52:31.743Z,0.00
2023-04-10T22:57:31.687Z,0.00
2023-04-10T23:02:31.669Z,0.00
2023-04-10T23:07:31.558Z,0.00
2023-04-10T23:12:31.481Z,0.00
2023-04-10T23:17:31.450Z,0.00
2023-04-10T23:22:31.352Z,0.00
2023-04-10T23:27:31.288Z,0.00
2023-04-10T23:32:31.233Z,0.00
2023-04-10T23:37:31.157Z,0.00
2023-04-10T23:42:31.080Z,0.00
2023-04-10T23:47:31.075Z,0.00
2023-04-10T23:52:30.950Z,0.00
2023-04-10T23:57:30.890Z,0.00
